Time;durP1;ratioP1;P1;durP2;ratioP2;P2;SDS_P1;SDS_P2;PMS_P1;PMS_P2;Temp;Humidity;BMP_temperature;BMP_pressure;BME280_temperature;BME280_humidity;BME280_pressure;Samples;Min_cycle;Max_cycle;Signal;HPM_P1;HPM_P2
2021/05/08 00:04:31;;;;;;;11.63;8.93;;;;;6.30;101199.00;;;;10493496;28;20597;-78
2021/05/08 00:09:32;;;;;;;10.73;7.70;;;;;6.20;101190.00;;;;10486298;28;20209;-78
2021/05/08 00:14:34;;;;;;;12.07;9.20;;;;;6.10;101187.00;;;;10506265;28;20207;-77
2021/05/08 00:19:35;;;;;;;15.37;10.30;;;;;5.90;101175.00;;;;10463977;28;20217;-77
2021/05/08 00:24:36;;;;;;;16.23;10.47;;;;;5.80;101179.00;;;;10507953;28;20191;-77
2021/05/08 00:29:38;;;;;;;15.27;9.53;;;;;5.60;101170.00;;;;10523033;28;20283;-77
2021/05/08 00:34:39;;;;;;;13.03;8.90;;;;;5.40;101172.00;;;;10505901;28;20193;-77
2021/05/08 00:39:41;;;;;;;18.37;11.17;;;;;5.30;101162.00;;;;10489364;28;20224;-77
2021/05/08 00:44:43;;;;;;;15.33;10.63;;;;;5.20;101167.00;;;;10505484;28;20185;-77
2021/05/08 00:49:45;;;;;;;14.07;11.03;;;;;5.10;101161.00;;;;10504276;28;20235;-77
2021/05/08 00:54:47;;;;;;;14.13;9.57;;;;;5.10;101151.00;;;;10521369;28;20694;-77
2021/05/08 00:59:48;;;;;;;15.27;10.23;;;;;5.10;101147.00;;;;10521053;28;20213;-76
2021/05/08 01:04:50;;;;;;;16.10;10.27;;;;;5.00;101147.00;;;;10521249;28;20269;-77
2021/05/08 01:09:53;;;;;;;14.67;10.13;;;;;5.00;101140.00;;;;10521579;28;20184;-77
2021/05/08 01:14:55;;;;;;;17.97;11.07;;;;;5.00;101141.00;;;;10505048;28;20185;-77
2021/05/08 01:19:57;;;;;;;17.40;11.53;;;;;5.10;101133.00;;;;10509311;28;20217;-77
2021/05/08 01:24:59;;;;;;;15.90;11.57;;;;;5.30;101129.00;;;;10528546;28;20200;-77
2021/05/08 01:30:00;;;;;;;16.83;12.00;;;;;5.40;101127.00;;;;10512040;28;20655;-77
2021/05/08 01:35:03;;;;;;;17.83;12.37;;;;;5.60;101122.00;;;;10529612;28;20552;-77
2021/05/08 01:40:10;;;;;;;17.07;11.37;;;;;5.60;101114.00;;;;10528766;28;20679;-77
2021/05/08 01:45:17;;;;;;;16.73;11.90;;;;;5.70;101109.00;;;;10527990;28;20184;-77
2021/05/08 01:50:25;;;;;;;15.07;10.87;;;;;5.70;101094.00;;;;10527826;28;20189;-77
2021/05/08 01:55:28;;;;;;;15.17;11.60;;;;;5.70;101101.00;;;;10527888;28;20209;-77
2021/05/08 02:00:36;;;;;;;15.77;11.20;;;;;5.70;101082.00;;;;10561822;28;20212;-77
2021/05/08 02:05:40;;;;;;;13.47;10.87;;;;;5.70;101082.00;;;;10511842;28;20251;-77
2021/05/08 02:10:52;;;;;;;14.93;10.60;;;;;5.70;101071.00;;;;10527287;28;20185;-77
2021/05/08 02:15:53;;;;;;;17.43;10.90;;;;;5.70;101063.00;;;;10510845;28;20695;-77
2021/05/08 02:20:56;;;;;;;15.00;9.97;;;;;5.70;101062.00;;;;10510334;28;20211;-77
2021/05/08 02:25:58;;;;;;;15.90;10.97;;;;;5.60;101039.00;;;;10509857;28;20648;-77
2021/05/08 02:30:59;;;;;;;11.87;9.93;;;;;5.60;101036.00;;;;10493469;28;20628;-77
2021/05/08 02:36:04;;;;;;;17.37;11.37;;;;;5.60;101042.00;;;;10492411;28;20248;-77
2021/05/08 02:41:06;;;;;;;15.30;11.83;;;;;5.60;101037.00;;;;10493215;28;20239;-77
2021/05/08 02:46:08;;;;;;;16.17;10.53;;;;;5.70;101022.00;;;;10544585;28;20201;-77
2021/05/08 02:51:09;;;;;;;13.47;10.60;;;;;5.80;101017.00;;;;10526061;28;20213;-77
2021/05/08 02:56:12;;;;;;;13.47;10.87;;;;;5.80;101003.00;;;;10543946;28;20200;-77
2021/05/08 03:01:17;;;;;;;12.10;9.87;;;;;5.90;101015.00;;;;10508913;28;20216;-77
2021/05/08 03:06:19;;;;;;;8.43;6.53;;;;;5.90;101013.00;;;;10525302;28;20296;-77
2021/05/08 03:11:20;;;;;;;7.33;6.03;;;;;6.20;101004.00;;;;10526064;28;20189;-77
2021/05/08 03:16:26;;;;;;;8.73;6.17;;;;;6.40;101001.00;;;;10509176;28;20188;-77
2021/05/08 03:21:28;;;;;;;9.10;5.70;;;;;6.60;100991.00;;;;10491402;28;20209;-77
2021/05/08 03:26:31;;;;;;;8.80;5.07;;;;;6.60;100995.00;;;;10508749;28;20208;-77
2021/05/08 03:31:33;;;;;;;8.67;5.40;;;;;6.70;100985.00;;;;10450411;28;20185;-76
2021/05/08 03:36:35;;;;;;;10.83;5.00;;;;;6.70;100990.00;;;;10516726;28;20275;-77
2021/05/08 03:41:36;;;;;;;8.60;4.67;;;;;6.80;100973.00;;;;10507868;28;20209;-77
2021/05/08 03:46:38;;;;;;;12.57;4.83;;;;;6.90;100970.00;;;;10474899;28;20295;-77
2021/05/08 03:51:39;;;;;;;7.27;4.37;;;;;7.00;100972.00;;;;10524122;28;20224;-77
2021/05/08 03:56:41;;;;;;;8.37;4.50;;;;;7.00;100965.00;;;;10490590;28;20196;-77
2021/05/08 04:01:42;;;;;;;8.33;4.10;;;;;7.10;100955.00;;;;10508646;28;20212;-77
2021/05/08 04:06:44;;;;;;;5.83;4.13;;;;;7.20;100963.00;;;;10507613;28;20212;-77
2021/05/08 04:11:45;;;;;;;6.97;4.00;;;;;7.30;100956.00;;;;10473978;28;20200;-77
2021/05/08 04:16:46;;;;;;;5.53;3.97;;;;;7.40;100954.00;;;;10506739;28;20185;-77
2021/05/08 04:21:48;;;;;;;7.60;4.63;;;;;7.60;100952.00;;;;10524109;28;20295;-77
2021/05/08 04:26:49;;;;;;;5.40;3.97;;;;;7.70;100955.00;;;;10506722;28;20201;-77
2021/05/08 04:31:50;;;;;;;6.17;4.33;;;;;8.00;100951.00;;;;10507248;28;20544;-77
2021/05/08 04:36:52;;;;;;;7.23;3.73;;;;;8.10;100958.00;;;;10506925;28;20197;-77
2021/05/08 04:41:53;;;;;;;5.27;3.87;;;;;8.30;100962.00;;;;10489460;28;20564;-77
2021/05/08 04:46:54;;;;;;;8.23;3.83;;;;;8.50;100954.00;;;;10489806;28;20203;-77
2021/05/08 04:51:56;;;;;;;10.67;4.40;;;;;8.70;100954.00;;;;10489511;28;20548;-77
2021/05/08 04:56:57;;;;;;;6.73;4.57;;;;;8.90;100957.00;;;;10497984;28;20192;-77
2021/05/08 05:02:00;;;;;;;8.07;4.67;;;;;8.80;100955.00;;;;10531464;28;20684;-77
2021/05/08 05:07:02;;;;;;;5.43;4.10;;;;;8.90;100949.00;;;;10548285;28;20258;-77
2021/05/08 05:12:03;;;;;;;10.00;4.13;;;;;8.90;100956.00;;;;10549310;28;20694;-78
2021/05/08 05:17:05;;;;;;;6.77;3.90;;;;;8.90;100950.00;;;;10538324;28;20205;-78
2021/05/08 05:22:06;;;;;;;7.20;4.10;;;;;9.00;100952.00;;;;10537354;28;20201;-78
2021/05/08 05:27:07;;;;;;;7.07;3.50;;;;;9.30;100949.00;;;;10536879;28;20192;-78
2021/05/08 05:32:09;;;;;;;5.77;3.73;;;;;9.50;100946.00;;;;10504799;28;20254;-78
2021/05/08 05:37:10;;;;;;;6.43;3.67;;;;;9.70;100945.00;;;;10502859;28;20261;-78
2021/05/08 05:42:12;;;;;;;10.37;3.67;;;;;10.00;100949.00;;;;10519833;28;20280;-78
2021/05/08 05:47:22;;;;;;;7.83;3.50;;;;;10.20;100951.00;;;;10525092;28;20217;-78
2021/05/08 05:52:25;;;;;;;7.07;3.63;;;;;10.40;100942.00;;;;10511070;28;20284;-76
2021/05/08 05:57:27;;;;;;;6.47;4.23;;;;;10.40;100944.00;;;;10538932;28;20201;-78
2021/05/08 06:02:33;;;;;;;5.83;3.73;;;;;10.30;100937.00;;;;10502296;28;20220;-78
2021/05/08 06:07:35;;;;;;;7.27;3.33;;;;;10.30;100933.00;;;;10550802;28;20223;-78
2021/05/08 06:12:37;;;;;;;7.57;3.77;;;;;10.30;100935.00;;;;10533866;28;20189;-76
2021/05/08 06:17:38;;;;;;;4.63;3.20;;;;;10.20;100933.00;;;;10513141;28;20209;-78
2021/05/08 06:22:40;;;;;;;5.77;3.57;;;;;10.20;100939.00;;;;10499751;28;20606;-78
2021/05/08 06:27:41;;;;;;;6.20;3.60;;;;;10.20;100922.00;;;;10500938;28;20200;-78
2021/05/08 06:32:42;;;;;;;6.20;3.70;;;;;10.30;100920.00;;;;10516368;28;20222;-78
2021/05/08 06:37:49;;;;;;;4.20;2.97;;;;;10.40;100906.00;;;;10516251;28;20197;-78
2021/05/08 06:42:50;;;;;;;5.33;3.13;;;;;10.60;100904.00;;;;10483418;28;20201;-78
2021/05/08 06:47:59;;;;;;;7.53;3.23;;;;;10.70;100897.00;;;;10517126;28;20197;-78
2021/05/08 06:53:02;;;;;;;4.20;2.83;;;;;10.90;100896.00;;;;10499849;28;20212;-79
2021/05/08 06:58:05;;;;;;;4.13;2.60;;;;;11.00;100886.00;;;;10501053;28;20201;-79
2021/05/08 07:03:06;;;;;;;7.80;3.13;;;;;11.30;100878.00;;;;10509698;28;20258;-79
2021/05/08 07:08:08;;;;;;;5.23;2.80;;;;;11.60;100889.00;;;;10515539;28;20259;-78
2021/05/08 07:13:10;;;;;;;9.37;3.00;;;;;11.70;100875.00;;;;10550580;28;20196;-78
2021/05/08 07:18:27;;;;;;;5.37;3.10;;;;;11.80;100876.00;;;;10533354;28;20192;-78
2021/05/08 07:23:29;;;;;;;6.30;2.97;;;;;11.90;100864.00;;;;10547480;28;20222;-78
2021/05/08 07:28:30;;;;;;;3.50;2.50;;;;;12.00;100870.00;;;;10531215;28;20188;-78
2021/05/08 07:33:31;;;;;;;5.63;3.10;;;;;12.30;100860.00;;;;10507710;28;20193;-76
2021/05/08 07:38:33;;;;;;;3.20;2.30;;;;;12.40;100860.00;;;;10505743;28;20247;-76
2021/05/08 07:43:34;;;;;;;4.60;2.80;;;;;12.30;100858.00;;;;10497818;28;20202;-76
2021/05/08 07:48:35;;;;;;;6.43;2.73;;;;;12.40;100858.00;;;;10489421;28;20797;-76
2021/05/08 07:53:37;;;;;;;5.30;2.63;;;;;12.50;100859.00;;;;10507580;28;20197;-76
2021/05/08 07:58:38;;;;;;;5.17;2.67;;;;;12.70;100856.00;;;;10517373;28;20211;-77
2021/05/08 08:03:40;;;;;;;4.90;2.83;;;;;12.90;100856.00;;;;10488166;28;20625;-76
2021/05/08 08:08:41;;;;;;;4.03;2.27;;;;;12.90;100844.00;;;;10464251;28;20213;-76
2021/05/08 08:13:42;;;;;;;4.23;2.50;;;;;12.90;100838.00;;;;10449182;28;20201;-77
2021/05/08 08:18:44;;;;;;;4.30;2.50;;;;;12.70;100830.00;;;;10483273;28;20189;-77
2021/05/08 08:23:45;;;;;;;5.47;2.90;;;;;12.80;100824.00;;;;10539708;28;20196;-77
2021/05/08 08:28:46;;;;;;;6.80;2.30;;;;;13.20;100816.00;;;;10512432;28;20245;-77
2021/05/08 08:33:48;;;;;;;5.30;2.80;;;;;13.30;100825.00;;;;10532047;28;20195;-76
2021/05/08 08:38:49;;;;;;;4.60;2.87;;;;;13.30;100817.00;;;;10510034;28;20211;-76
2021/05/08 08:43:50;;;;;;;4.57;2.90;;;;;13.80;100812.00;;;;10517273;28;20192;-77
2021/05/08 08:48:52;;;;;;;3.43;2.67;;;;;14.10;100795.00;;;;10516273;28;20241;-77
2021/05/08 08:53:55;;;;;;;4.03;3.00;;;;;14.40;100792.00;;;;10493653;28;20548;-76
2021/05/08 08:59:02;;;;;;;3.37;2.80;;;;;14.50;100786.00;;;;10532075;28;20196;-77
2021/05/08 09:04:05;;;;;;;8.57;3.13;;;;;14.30;100790.00;;;;10533545;28;20208;-77
2021/05/08 09:09:08;;;;;;;6.03;3.00;;;;;14.60;100779.00;;;;10521579;28;20209;-77
2021/05/08 09:14:23;;;;;;;4.67;2.60;;;;;15.00;100763.00;;;;10550561;28;20185;-77
2021/05/08 09:19:24;;;;;;;4.97;2.47;;;;;15.30;100765.00;;;;10515815;28;20291;-77
2021/05/08 09:24:25;;;;;;;3.60;2.77;;;;;15.50;100758.00;;;;10490575;28;20188;-78
2021/05/08 09:29:27;;;;;;;3.57;2.37;;;;;15.10;100750.00;;;;10501738;28;20198;-78
2021/05/08 09:34:28;;;;;;;2.67;2.47;;;;;14.90;100739.00;;;;10488556;28;20223;-78
2021/05/08 09:39:34;;;;;;;3.27;2.97;;;;;15.00;100739.00;;;;10547132;28;20207;-78
2021/05/08 09:44:35;;;;;;;4.10;2.43;;;;;15.20;100719.00;;;;10532973;28;20197;-78
2021/05/08 09:49:36;;;;;;;2.60;2.40;;;;;15.00;100714.00;;;;10536801;28;20230;-78
2021/05/08 09:54:38;;;;;;;4.80;2.90;;;;;14.60;100717.00;;;;10489296;28;20201;-77
2021/05/08 09:59:41;;;;;;;7.23;3.23;;;;;14.10;100715.00;;;;10530041;28;20209;-78
2021/05/08 10:04:48;;;;;;;6.97;3.10;;;;;14.10;100702.00;;;;10533456;28;20217;-77
2021/05/08 10:09:52;;;;;;;2.90;2.60;;;;;14.10;100697.00;;;;10503755;28;20223;-78
2021/05/08 10:14:55;;;;;;;5.30;3.40;;;;;14.30;100694.00;;;;10503025;28;20207;-77
2021/05/08 10:20:08;;;;;;;6.87;3.70;;;;;14.60;100674.00;;;;10515558;28;20559;-77
2021/05/08 10:25:10;;;;;;;3.67;2.93;;;;;14.40;100662.00;;;;10500281;28;20235;-78
2021/05/08 10:30:17;;;;;;;5.10;3.10;;;;;15.20;100647.00;;;;10541174;28;20182;-78
2021/05/08 10:35:26;;;;;;;2.80;2.60;;;;;15.70;100635.00;;;;10520401;28;20201;-78
2021/05/08 10:40:27;;;;;;;3.63;2.67;;;;;15.40;100630.00;;;;10515469;28;20567;-78
2021/05/08 10:45:32;;;;;;;2.53;2.33;;;;;14.50;100628.00;;;;10512403;28;20200;-77
2021/05/08 10:50:43;;;;;;;5.37;2.63;;;;;13.90;100635.00;;;;10534476;28;20660;-77
2021/05/08 10:55:59;;;;;;;2.57;2.33;;;;;13.70;100623.00;;;;10519079;28;20207;-78
2021/05/08 11:01:04;;;;;;;3.10;2.80;;;;;13.80;100612.00;;;;10533096;28;20214;-78
2021/05/08 11:06:17;;;;;;;3.13;2.67;;;;;14.10;100618.00;;;;10515100;28;20236;-78
2021/05/08 11:11:22;;;;;;;3.47;2.73;;;;;14.20;100608.00;;;;10530666;28;20191;-78
2021/05/08 11:16:33;;;;;;;3.43;2.90;;;;;14.60;100599.00;;;;10543280;28;20189;-77
2021/05/08 11:21:34;;;;;;;2.57;2.37;;;;;15.00;100591.00;;;;10541408;28;20269;-78
2021/05/08 11:26:38;;;;;;;8.33;3.23;;;;;15.10;100582.00;;;;10526265;28;20196;-78
2021/05/08 11:31:48;;;;;;;3.40;2.93;;;;;15.00;100586.00;;;;10529125;28;20591;-78
2021/05/08 11:36:49;;;;;;;4.33;2.93;;;;;15.20;100571.00;;;;10520376;28;20193;-77
2021/05/08 11:41:55;;;;;;;3.53;2.03;;;;;14.70;100565.00;;;;10533791;28;20556;-77
2021/05/08 11:47:05;;;;;;;4.23;2.50;;;;;14.70;100559.00;;;;10500797;28;20208;-77
2021/05/08 11:52:07;;;;;;;2.80;2.03;;;;;14.70;100548.00;;;;10509416;28;20691;-77
2021/05/08 11:57:20;;;;;;;2.20;2.00;;;;;15.20;100532.00;;;;10542810;28;20208;-77
2021/05/08 12:02:24;;;;;;;4.53;2.90;;;;;15.70;100521.00;;;;10542471;28;20216;-77
2021/05/08 12:07:29;;;;;;;2.70;1.87;;;;;15.70;100520.00;;;;10524523;28;20266;-77
2021/05/08 12:12:43;;;;;;;2.27;2.07;;;;;16.00;100508.00;;;;10525715;28;20632;-77
2021/05/08 12:17:45;;;;;;;2.60;1.90;;;;;16.30;100494.00;;;;10524127;28;20290;-76
2021/05/08 12:22:47;;;;;;;2.77;1.83;;;;;16.30;100496.00;;;;10523469;28;20205;-77
2021/05/08 12:27:48;;;;;;;3.77;2.00;;;;;16.80;100488.00;;;;10541628;28;20196;-76
2021/05/08 12:32:51;;;;;;;2.57;2.17;;;;;16.90;100492.00;;;;10558309;28;20196;-77
2021/05/08 12:37:53;;;;;;;5.60;2.57;;;;;17.40;100477.00;;;;10490641;28;20262;-77
2021/05/08 12:42:54;;;;;;;3.30;2.20;;;;;17.80;100480.00;;;;10507502;28;20209;-76
2021/05/08 12:47:55;;;;;;;3.63;2.27;;;;;18.70;100473.00;;;;10524174;28;20208;-76
2021/05/08 12:53:05;;;;;;;3.13;1.80;;;;;18.90;100461.00;;;;10523641;28;20185;-77
2021/05/08 12:58:11;;;;;;;3.50;1.97;;;;;18.60;100462.00;;;;10498732;28;20201;-76
2021/05/08 13:03:21;;;;;;;4.13;2.17;;;;;18.60;100449.00;;;;10499077;28;20205;-77
2021/05/08 13:08:47;;;;;;;6.40;2.25;;;;;18.80;100435.00;;;;10530039;28;20236;-77
2021/05/08 13:13:49;;;;;;;6.55;2.42;;;;;18.60;100436.00;;;;10541994;28;20578;-78
2021/05/08 13:18:50;;;;;;;3.20;1.98;;;;;18.60;100425.00;;;;10549563;28;20209;-77
2021/05/08 13:23:51;;;;;;;4.80;2.08;;;;;18.90;100418.00;;;;10522909;28;20231;-77
2021/05/08 13:28:53;;;;;;;6.50;1.85;;;;;18.90;100419.00;;;;10531540;28;20245;-77
2021/05/08 13:33:54;;;;;;;5.40;1.83;;;;;19.30;100400.00;;;;10514263;28;20193;-77
2021/05/08 13:38:55;;;;;;;5.50;1.95;;;;;19.70;100391.00;;;;10517663;28;20212;-77
2021/05/08 13:43:57;;;;;;;3.35;1.83;;;;;19.80;100398.00;;;;10515867;28;20610;-77
2021/05/08 13:48:58;;;;;;;2.65;1.92;;;;;20.20;100386.00;;;;10513807;28;20201;-78
2021/05/08 13:53:59;;;;;;;3.35;2.15;;;;;20.20;100396.00;;;;10513838;28;20215;-77
2021/05/08 13:59:01;;;;;;;2.03;1.73;;;;;20.60;100385.00;;;;10496355;28;20187;-76
2021/05/08 14:04:09;;;;;;;4.60;2.15;;;;;20.90;100383.00;;;;10480100;28;20197;-77
2021/05/08 14:09:10;;;;;;;3.38;1.92;;;;;21.30;100388.00;;;;10488997;28;20216;-77
2021/05/08 14:14:12;;;;;;;4.35;2.60;;;;;21.50;100380.00;;;;10538144;28;20219;-77
2021/05/08 14:19:14;;;;;;;4.68;2.78;;;;;21.50;100367.00;;;;10571614;28;20192;-77
2021/05/08 14:24:18;;;;;;;6.15;2.97;;;;;21.10;100369.00;;;;10520509;28;20203;-77
2021/05/08 14:29:19;;;;;;;3.53;2.58;;;;;20.20;100366.00;;;;10554584;28;20192;-77
2021/05/08 14:34:25;;;;;;;3.25;2.47;;;;;20.40;100349.00;;;;10565735;28;20200;-78
2021/05/08 14:39:27;;;;;;;5.53;2.33;;;;;21.70;100350.00;;;;10546327;28;20265;-78
2021/05/08 14:44:28;;;;;;;4.03;2.70;;;;;25.80;100315.00;;;;10505878;28;20268;-77
2021/05/08 14:49:31;;;;;;;2.85;2.35;;;;;29.50;100295.00;;;;10560220;28;20283;-78
2021/05/08 14:54:32;;;;;;;3.22;2.53;;;;;32.70;100286.00;;;;10514071;28;20193;-78
2021/05/08 14:59:34;;;;;;;3.53;2.17;;;;;32.30;100294.00;;;;10545204;28;20208;-77
2021/05/08 15:04:35;;;;;;;4.78;2.40;;;;;28.10;100287.00;;;;10535734;28;20228;-76
2021/05/08 15:09:37;;;;;;;3.63;2.20;;;;;24.40;100297.00;;;;10527909;28;20212;-77
2021/05/08 15:14:39;;;;;;;3.50;2.15;;;;;23.00;100288.00;;;;10535166;28;20191;-78
2021/05/08 15:19:40;;;;;;;3.13;1.83;;;;;24.50;100268.00;;;;10524736;28;20232;-78
2021/05/08 15:24:42;;;;;;;3.53;1.80;;;;;27.20;100275.00;;;;10543299;28;20717;-78
2021/05/08 15:29:43;;;;;;;3.17;2.00;;;;;25.50;100283.00;;;;10485872;28;20196;-78
2021/05/08 15:34:44;;;;;;;3.38;1.88;;;;;26.50;100279.00;;;;10483541;28;20283;-77
2021/05/08 15:39:46;;;;;;;4.63;2.17;;;;;25.40;100273.00;;;;10519183;28;20224;-78
2021/05/08 15:44:47;;;;;;;2.90;1.67;;;;;28.10;100288.00;;;;10529021;28;20193;-77
2021/05/08 15:49:51;;;;;;;2.53;1.95;;;;;24.50;100273.00;;;;10513126;28;20201;-77
2021/05/08 15:54:54;;;;;;;4.50;2.40;;;;;22.00;100286.00;;;;10536036;28;20276;-79
2021/05/08 15:59:55;;;;;;;3.67;1.95;;;;;21.20;100277.00;;;;10525046;28;20697;-77
2021/05/08 16:04:57;;;;;;;5.03;2.10;;;;;21.00;100279.00;;;;10505966;28;20285;-78
2021/05/08 16:09:58;;;;;;;4.78;2.15;;;;;20.90;100266.00;;;;10525320;28;20188;-78
2021/05/08 16:14:59;;;;;;;3.00;2.33;;;;;20.40;100265.00;;;;10526559;28;20189;-77
2021/05/08 16:20:02;;;;;;;3.22;2.35;;;;;20.10;100267.00;;;;10492101;28;20737;-78
2021/05/08 16:25:05;;;;;;;2.78;2.15;;;;;19.80;100274.00;;;;10497378;28;20193;-77
2021/05/08 16:30:07;;;;;;;3.40;2.45;;;;;19.50;100269.00;;;;10567470;28;20655;-78
2021/05/08 16:35:09;;;;;;;4.13;2.05;;;;;19.50;100266.00;;;;10550726;28;20203;-78
2021/05/08 16:40:12;;;;;;;4.28;2.30;;;;;19.80;100264.00;;;;10567735;28;20210;-78
2021/05/08 16:45:13;;;;;;;3.00;2.20;;;;;19.90;100260.00;;;;10512916;28;20232;-77
2021/05/08 16:50:17;;;;;;;5.30;2.13;;;;;20.20;100244.00;;;;10530230;28;20648;-78
2021/05/08 16:55:19;;;;;;;4.60;1.98;;;;;20.70;100239.00;;;;10549520;28;20203;-77
2021/05/08 17:00:21;;;;;;;3.70;2.13;;;;;20.90;100236.00;;;;10575771;28;20790;-78
2021/05/08 17:05:23;;;;;;;3.67;2.55;;;;;20.60;100231.00;;;;10534796;28;20235;-77
2021/05/08 17:10:26;;;;;;;3.30;1.95;;;;;20.20;100214.00;;;;10499160;28;20238;-77
2021/05/08 17:15:28;;;;;;;5.50;2.35;;;;;19.80;100228.00;;;;10532377;28;20200;-77
2021/05/08 17:20:29;;;;;;;4.07;2.53;;;;;19.50;100234.00;;;;10515432;28;20732;-78
2021/05/08 17:25:30;;;;;;;4.15;2.10;;;;;19.40;100238.00;;;;10532268;28;20208;-77
2021/05/08 17:30:33;;;;;;;4.45;2.53;;;;;19.40;100231.00;;;;10532409;28;20275;-77
2021/05/08 17:35:34;;;;;;;4.78;2.55;;;;;19.40;100222.00;;;;10497647;28;20250;-77
2021/05/08 17:40:36;;;;;;;3.28;2.42;;;;;19.30;100224.00;;;;10547042;28;20295;-77
2021/05/08 17:45:37;;;;;;;2.92;2.38;;;;;19.40;100216.00;;;;10547626;28;20212;-78
2021/05/08 17:50:39;;;;;;;3.92;1.98;;;;;19.20;100226.00;;;;10515670;28;20215;-76
2021/05/08 17:55:40;;;;;;;6.47;2.90;;;;;19.10;100214.00;;;;10497673;28;20207;-77
2021/05/08 18:00:42;;;;;;;3.55;2.45;;;;;19.10;100217.00;;;;10531371;28;20261;-77
2021/05/08 18:05:44;;;;;;;4.93;2.95;;;;;19.10;100214.00;;;;10531299;28;20239;-76
2021/05/08 18:10:45;;;;;;;4.07;2.22;;;;;18.90;100211.00;;;;10546532;28;20702;-77
2021/05/08 18:15:47;;;;;;;5.55;2.95;;;;;18.70;100206.00;;;;10529352;28;20590;-77
2021/05/08 18:20:49;;;;;;;4.47;2.70;;;;;18.50;100205.00;;;;10547080;28;20216;-78
2021/05/08 18:25:51;;;;;;;5.50;2.65;;;;;18.50;100214.00;;;;10512232;28;20208;-77
2021/05/08 18:30:52;;;;;;;4.88;2.70;;;;;18.60;100205.00;;;;10528526;28;20193;-77
2021/05/08 18:35:53;;;;;;;5.25;2.47;;;;;18.50;100210.00;;;;10511959;28;20188;-77
2021/05/08 18:40:59;;;;;;;3.10;2.67;;;;;18.40;100212.00;;;;10512594;28;20556;-77
2021/05/08 18:46:00;;;;;;;4.63;2.77;;;;;18.20;100213.00;;;;10528451;28;20208;-77
2021/05/08 18:51:01;;;;;;;4.40;2.70;;;;;17.90;100216.00;;;;10545120;28;20219;-77
2021/05/08 18:56:04;;;;;;;4.32;2.50;;;;;17.70;100214.00;;;;10528836;28;20215;-76
2021/05/08 19:01:05;;;;;;;6.70;3.63;;;;;17.50;100213.00;;;;10528054;28;20262;-77
2021/05/08 19:06:06;;;;;;;8.60;2.92;;;;;17.30;100220.00;;;;10511122;28;20212;-77
2021/05/08 19:11:08;;;;;;;3.90;2.67;;;;;17.10;100227.00;;;;10509576;28;20185;-76
2021/05/08 19:16:09;;;;;;;4.50;2.47;;;;;16.90;100218.00;;;;10493343;28;20216;-77
2021/05/08 19:21:11;;;;;;;5.67;3.80;;;;;16.80;100227.00;;;;10510173;28;20204;-77
2021/05/08 19:26:12;;;;;;;8.07;4.43;;;;;16.70;100236.00;;;;10566738;28;20208;-76
2021/05/08 19:31:14;;;;;;;4.87;3.10;;;;;16.60;100232.00;;;;10484402;28;20197;-78
2021/05/08 19:36:15;;;;;;;5.63;3.13;;;;;16.40;100236.00;;;;10487850;28;20763;-77
2021/05/08 19:41:17;;;;;;;8.07;3.17;;;;;16.30;100241.00;;;;10503664;28;20656;-78
2021/05/08 19:46:18;;;;;;;6.17;4.17;;;;;16.20;100243.00;;;;10521764;28;20862;-78
2021/05/08 19:51:23;;;;;;;4.87;2.97;;;;;16.20;100245.00;;;;10512851;28;20189;-79
2021/05/08 19:56:25;;;;;;;7.00;3.17;;;;;16.10;100251.00;;;;10478583;28;20660;-77
2021/05/08 20:01:27;;;;;;;6.90;3.33;;;;;16.00;100238.00;;;;10509243;28;20217;-77
2021/05/08 20:06:28;;;;;;;5.80;2.53;;;;;15.80;100236.00;;;;10517908;28;20545;-77
2021/05/08 20:11:29;;;;;;;6.10;3.60;;;;;15.70;100238.00;;;;10546785;28;20536;-78
2021/05/08 20:16:31;;;;;;;4.50;3.33;;;;;15.60;100241.00;;;;10511019;28;20652;-77
2021/05/08 20:21:32;;;;;;;8.10;4.00;;;;;15.60;100248.00;;;;10510999;28;20211;-78
2021/05/08 20:26:33;;;;;;;4.80;3.23;;;;;15.40;100239.00;;;;10527541;28;20193;-78
2021/05/08 20:31:34;;;;;;;4.63;3.00;;;;;15.20;100253.00;;;;10529899;28;20186;-77
2021/05/08 20:36:36;;;;;;;6.73;3.40;;;;;15.10;100256.00;;;;10486395;28;20195;-77
2021/05/08 20:41:41;;;;;;;5.47;4.03;;;;;15.00;100253.00;;;;10486110;28;20209;-78
2021/05/08 20:46:43;;;;;;;5.07;4.07;;;;;15.00;100254.00;;;;10518892;28;20684;-78
2021/05/08 20:51:45;;;;;;;5.73;4.30;;;;;15.00;100264.00;;;;10486087;28;20185;-77
2021/05/08 20:56:50;;;;;;;4.93;3.70;;;;;15.00;100260.00;;;;10502803;28;20231;-77
2021/05/08 21:01:51;;;;;;;5.60;4.07;;;;;15.00;100260.00;;;;10502219;28;20205;-78
2021/05/08 21:06:53;;;;;;;7.17;4.10;;;;;14.90;100263.00;;;;10494168;28;20213;-77
2021/05/08 21:11:54;;;;;;;5.53;4.00;;;;;14.80;100259.00;;;;10485483;28;20197;-77
2021/05/08 21:16:56;;;;;;;6.60;3.53;;;;;14.80;100256.00;;;;10514354;28;20184;-77
2021/05/08 21:21:57;;;;;;;4.50;3.73;;;;;14.70;100260.00;;;;10526633;28;20213;-77
2021/05/08 21:26:59;;;;;;;5.53;3.77;;;;;14.60;100255.00;;;;10532971;28;20181;-77
2021/05/08 21:32:00;;;;;;;8.40;4.30;;;;;14.50;100260.00;;;;10510316;28;20188;-78
2021/05/08 21:37:02;;;;;;;5.77;3.67;;;;;14.50;100254.00;;;;10530973;28;20242;-78
2021/05/08 21:42:04;;;;;;;5.30;3.60;;;;;14.50;100258.00;;;;10534570;28;20208;-78
2021/05/08 21:47:05;;;;;;;9.47;4.13;;;;;14.40;100264.00;;;;10534497;28;20195;-77
2021/05/08 21:52:06;;;;;;;6.90;4.03;;;;;14.30;100260.00;;;;10552097;28;20189;-77
2021/05/08 21:57:08;;;;;;;5.47;3.93;;;;;14.30;100262.00;;;;10480724;28;20251;-78
2021/05/08 22:02:09;;;;;;;6.30;3.53;;;;;14.30;100264.00;;;;10540352;28;20246;-78
2021/05/08 22:07:11;;;;;;;6.37;3.50;;;;;14.20;100271.00;;;;10517117;28;20219;-77
2021/05/08 22:12:12;;;;;;;5.07;3.73;;;;;14.20;100252.00;;;;10516698;28;20189;-77
2021/05/08 22:17:13;;;;;;;6.60;3.70;;;;;14.30;100240.00;;;;10515676;28;20201;-77
2021/05/08 22:22:15;;;;;;;5.07;3.40;;;;;14.30;100246.00;;;;10549768;28;20204;-77
2021/05/08 22:27:17;;;;;;;8.77;3.47;;;;;14.20;100247.00;;;;10515647;28;20188;-77
2021/05/08 22:32:18;;;;;;;4.73;3.30;;;;;14.20;100232.00;;;;10533138;28;20239;-77
2021/05/08 22:37:22;;;;;;;6.70;3.70;;;;;14.10;100239.00;;;;10548498;28;20195;-78
2021/05/08 22:42:24;;;;;;;6.27;3.80;;;;;14.10;100241.00;;;;10514978;28;20267;-78
2021/05/08 22:47:39;;;;;;;4.70;3.23;;;;;14.00;100242.00;;;;10530715;28;20220;-77
2021/05/08 22:52:42;;;;;;;7.10;4.10;;;;;14.00;100227.00;;;;10514923;28;20185;-77
2021/05/08 22:57:44;;;;;;;9.80;3.27;;;;;13.90;100234.00;;;;10550630;28;20230;-77
2021/05/08 23:02:48;;;;;;;6.13;3.30;;;;;13.90;100232.00;;;;10505280;28;20204;-78
2021/05/08 23:07:50;;;;;;;7.27;3.73;;;;;13.70;100220.00;;;;10513508;28;20296;-77
2021/05/08 23:12:51;;;;;;;5.03;3.60;;;;;13.70;100218.00;;;;10514001;28;20212;-76
2021/05/08 23:17:53;;;;;;;9.73;3.80;;;;;13.60;100218.00;;;;10471660;28;20194;-78
2021/05/08 23:22:54;;;;;;;6.10;3.80;;;;;13.60;100213.00;;;;10539003;28;20208;-77
2021/05/08 23:27:55;;;;;;;6.27;3.87;;;;;13.50;100201.00;;;;10529636;28;20193;-77
2021/05/08 23:32:56;;;;;;;5.07;3.40;;;;;13.50;100202.00;;;;10507279;28;20184;-77
2021/05/08 23:37:58;;;;;;;4.90;3.40;;;;;13.40;100190.00;;;;10546278;28;20189;-76
2021/05/08 23:42:59;;;;;;;5.17;3.20;;;;;13.30;100184.00;;;;10529861;28;20270;-77
2021/05/08 23:48:01;;;;;;;6.40;3.87;;;;;13.30;100180.00;;;;10511757;28;20192;-77
2021/05/08 23:53:02;;;;;;;5.40;3.80;;;;;13.30;100166.00;;;;10511857;28;20196;-77
2021/05/08 23:58:06;;;;;;;7.90;4.07;;;;;13.20;100161.00;;;;10511158;28;20250;-78
